createdAt,value
2019-04-20T00:02:10.065Z,3.72
2019-04-20T00:04:35.371Z,4.15
2019-04-20T00:07:08.011Z,3.30
2019-04-20T00:09:45.412Z,4.10
2019-04-20T00:12:20.284Z,3.08
2019-04-20T00:14:48.440Z,3.35
2019-04-20T00:17:21.990Z,3.22
2019-04-20T00:19:57.445Z,3.33
2019-04-20T00:22:51.707Z,3.60
2019-04-20T00:25:47.205Z,3.25
2019-04-20T00:28:34.281Z,3.37
2019-04-20T00:30:58.739Z,3.20
2019-04-20T00:33:36.382Z,3.95
2019-04-20T00:35:52.626Z,3.65
2019-04-20T00:38:27.136Z,3.22
2019-04-20T00:41:02.727Z,3.42
2019-04-20T00:43:37.301Z,3.00
2019-04-20T00:46:20.116Z,3.60
2019-04-20T00:48:50.887Z,3.50
2019-04-20T00:51:33.947Z,2.95
2019-04-20T00:53:52.312Z,4.00
2019-04-20T00:56:24.350Z,3.67
2019-04-20T00:59:12.018Z,3.25
2019-04-20T01:01:54.544Z,2.87
2019-04-20T01:04:20.236Z,3.60
2019-04-20T01:07:11.001Z,3.40
2019-04-20T01:09:47.850Z,3.47
2019-04-20T01:12:24.650Z,3.00
2019-04-20T01:15:00.284Z,3.40
2019-04-20T01:17:28.153Z,3.62
2019-04-20T01:20:00.389Z,3.35
2019-04-20T01:22:40.246Z,3.55
2019-04-20T01:25:14.140Z,3.05
2019-04-20T01:28:02.208Z,3.50
2019-04-20T01:30:25.254Z,4.10
2019-04-20T01:33:03.478Z,3.83
2019-04-20T01:35:39.427Z,3.92
2019-04-20T01:38:16.637Z,3.87
2019-04-20T01:40:31.645Z,3.35
2019-04-20T01:43:04.005Z,3.47
2019-04-20T01:45:40.618Z,3.22
2019-04-20T01:48:14.205Z,3.67
2019-04-20T01:50:57.407Z,3.30
2019-04-20T01:53:32.514Z,3.90
2019-04-20T01:56:13.957Z,4.12
2019-04-20T01:58:50.624Z,3.80
2019-04-20T02:01:25.135Z,3.95
2019-04-20T02:03:57.500Z,3.45
2019-04-20T02:06:41.916Z,3.92
2019-04-20T02:09:13.021Z,3.92
2019-04-20T02:11:44.795Z,3.40
2019-04-20T02:14:25.604Z,3.77
2019-04-20T02:16:56.549Z,3.98
2019-04-20T02:19:34.464Z,3.60
2019-04-20T02:22:09.739Z,3.83
2019-04-20T02:24:30.333Z,4.08
2019-04-20T02:27:03.739Z,3.80
2019-04-20T02:29:58.519Z,3.72
2019-04-20T02:32:42.912Z,4.25
2019-04-20T02:35:18.712Z,3.45
2019-04-20T02:40:39.786Z,4.37
2019-04-20T02:43:09.414Z,3.60
2019-04-20T02:48:08.649Z,4.00
2019-04-20T02:50:56.265Z,4.30
2019-04-20T02:53:23.626Z,4.00
2019-04-20T02:56:00.158Z,3.50
2019-04-20T02:58:39.064Z,3.47
2019-04-20T03:00:55.113Z,4.00
2019-04-20T03:03:19.498Z,4.15
2019-04-20T03:05:51.704Z,3.72
2019-04-20T03:10:39.379Z,4.10
2019-04-20T03:13:03.982Z,3.83
2019-04-20T03:15:38.249Z,3.83
2019-04-20T03:18:12.383Z,3.33
2019-04-20T03:20:45.965Z,3.33
2019-04-20T03:26:12.503Z,3.55
2019-04-20T03:28:50.124Z,4.05
2019-04-20T04:11:58.580Z,3.60
2019-04-20T04:14:17.734Z,4.08
2019-04-20T04:16:54.866Z,4.00
2019-04-20T06:25:59.243Z,4.93
2019-04-20T06:28:17.368Z,4.65
2019-04-20T06:30:50.043Z,4.92
2019-04-20T06:34:04.004Z,4.80
2019-04-20T06:36:27.669Z,5.35
2019-04-20T06:39:02.375Z,4.60
2019-04-20T06:41:49.120Z,5.22
2019-04-20T06:44:08.177Z,4.97
2019-04-20T06:46:48.652Z,5.53
2019-04-20T06:49:17.017Z,5.22
2019-04-20T06:51:49.091Z,4.85
2019-04-20T06:54:17.606Z,5.28
2019-04-20T06:57:01.756Z,5.00
2019-04-20T06:59:38.698Z,5.30
2019-04-20T07:02:20.085Z,5.62
2019-04-20T07:04:47.522Z,5.60
2019-04-20T07:07:19.567Z,5.20
2019-04-20T07:12:24.370Z,5.22
2019-04-20T07:14:49.804Z,5.45
2019-04-20T07:20:04.529Z,5.60
2019-04-20T07:22:51.093Z,5.62
2019-04-20T07:25:33.165Z,5.55
2019-04-20T07:28:05.871Z,5.97
2019-04-20T07:30:35.458Z,5.45
2019-04-20T07:33:08.912Z,5.97
2019-04-20T07:35:40.425Z,5.58
2019-04-20T07:38:31.237Z,6.47
2019-04-20T07:40:50.377Z,5.97
2019-04-20T07:43:28.338Z,5.97
2019-04-20T07:46:02.397Z,5.83
2019-04-20T07:48:29.582Z,5.55
2019-04-20T07:51:00.398Z,6.75
2019-04-20T07:53:37.937Z,5.87
2019-04-20T07:56:16.357Z,6.40
2019-04-20T07:58:40.118Z,5.85
2019-04-20T08:01:43.070Z,5.47
2019-04-20T08:04:11.835Z,6.70
2019-04-20T08:06:33.074Z,6.10
2019-04-20T08:09:11.621Z,5.15
2019-04-20T08:11:55.306Z,5.83
2019-04-20T08:14:30.651Z,5.20
2019-04-20T08:17:14.003Z,4.60
2019-04-20T08:19:36.688Z,5.20
2019-04-20T08:22:11.759Z,4.53
2019-04-20T08:24:37.369Z,4.62
2019-04-20T08:27:04.280Z,4.40
2019-04-20T08:29:45.101Z,4.30
2019-04-20T08:32:37.738Z,4.33
2019-04-20T08:35:22.200Z,4.28
2019-04-20T08:38:13.466Z,4.53
2019-04-20T08:40:29.661Z,4.37
2019-04-20T08:43:10.815Z,4.53
2019-04-20T08:45:35.051Z,4.30
2019-04-20T08:48:14.090Z,4.53
2019-04-20T08:50:41.268Z,4.20
2019-04-20T08:53:23.144Z,4.97
2019-04-20T08:55:45.317Z,4.22
2019-04-20T08:58:04.493Z,3.92
2019-04-20T09:00:42.944Z,3.83
2019-04-20T09:03:17.996Z,3.92
2019-04-20T09:06:00.528Z,3.98
2019-04-20T09:08:24.973Z,4.53
2019-04-20T09:11:09.914Z,4.22
2019-04-20T09:13:39.122Z,3.62
2019-04-20T09:16:02.181Z,4.85
2019-04-20T09:18:46.630Z,4.03
2019-04-20T09:21:25.429Z,4.10
2019-04-20T09:24:10.079Z,4.50
2019-04-20T09:26:37.059Z,3.62
2019-04-20T09:29:05.912Z,3.83
2019-04-20T09:31:43.666Z,4.67
2019-04-20T09:34:33.669Z,3.92
2019-04-20T09:37:10.902Z,4.65
2019-04-20T09:39:44.029Z,4.60
2019-04-20T09:42:06.364Z,3.85
2019-04-20T09:44:42.636Z,4.33
2019-04-20T09:47:14.149Z,5.12
2019-04-20T09:49:58.156Z,4.35
2019-04-20T09:52:32.274Z,4.25
2019-04-20T09:55:06.794Z,5.00
2019-04-20T09:57:47.695Z,5.08
2019-04-20T10:00:18.299Z,3.75
2019-04-20T10:02:39.290Z,4.97
2019-04-20T10:05:11.514Z,4.12
2019-04-20T10:07:47.230Z,4.30
2019-04-20T10:10:26.938Z,3.92
2019-04-20T10:12:52.209Z,4.08
2019-04-20T10:15:26.646Z,3.75
2019-04-20T10:17:59.536Z,3.95
2019-04-20T10:20:34.806Z,4.40
2019-04-20T10:23:06.773Z,4.08
2019-04-20T10:25:40.340Z,4.33
2019-04-20T10:28:13.866Z,3.77
2019-04-20T10:30:46.370Z,3.80
2019-04-20T10:33:19.574Z,3.92
2019-04-20T10:35:52.200Z,4.20
2019-04-20T10:38:32.319Z,3.62
2019-04-20T10:41:11.280Z,3.67
2019-04-20T10:43:36.939Z,4.37
2019-04-20T10:46:09.264Z,5.90
2019-04-20T10:48:47.341Z,2.83
2019-04-20T10:51:15.653Z,3.40
2019-04-20T10:53:48.612Z,4.12
2019-04-20T10:56:21.414Z,3.58
2019-04-20T10:58:53.902Z,4.17
2019-04-20T11:01:27.408Z,3.40
2019-04-20T11:04:00.822Z,1.63
2019-04-20T11:06:34.559Z,4.53
2019-04-20T11:09:08.774Z,4.03
2019-04-20T11:11:41.480Z,7.70
2019-04-20T11:14:22.813Z,4.10
2019-04-20T11:16:48.757Z,5.40
2019-04-20T11:19:21.249Z,3.80
2019-04-20T11:21:54.444Z,3.50
2019-04-20T11:24:27.991Z,3.62
2019-04-20T11:27:00.793Z,3.47
2019-04-20T11:29:33.921Z,3.22
2019-04-20T11:32:07.296Z,3.55
2019-04-20T11:34:40.797Z,3.05
2019-04-20T11:37:15.137Z,3.50
2019-04-20T11:39:48.700Z,2.75
2019-04-20T11:42:23.538Z,3.45
2019-04-20T11:44:57.110Z,4.62
2019-04-20T11:47:29.695Z,3.98
2019-04-20T11:50:02.072Z,1.55
2019-04-20T11:52:39.905Z,1.77
2019-04-20T11:55:10.424Z,1.00
2019-04-20T11:57:43.130Z,1.85
2019-04-20T12:00:17.335Z,1.80
2019-04-20T12:03:09.583Z,1.47
2019-04-20T12:05:40.781Z,0.53
2019-04-20T12:08:07.219Z,0.65
2019-04-20T12:10:39.473Z,0.47
2019-04-20T12:13:14.414Z,0.62
2019-04-20T12:15:45.751Z,0.28
2019-04-20T12:18:18.019Z,0.55
2019-04-20T12:20:50.524Z,0.50
2019-04-20T12:23:22.771Z,0.50
2019-04-20T12:25:56.312Z,0.60
2019-04-20T12:28:29.617Z,0.47
2019-04-20T12:31:10.396Z,0.53
2019-04-20T12:33:36.706Z,0.53
2019-04-20T12:36:10.292Z,0.78
2019-04-20T12:38:43.350Z,0.40
2019-04-20T12:41:16.174Z,1.10
2019-04-20T12:43:49.730Z,1.05
2019-04-20T12:46:23.427Z,0.60
2019-04-20T12:48:56.114Z,0.70
2019-04-20T12:51:33.863Z,0.20
2019-04-20T12:54:04.577Z,0.20
2019-04-20T12:56:38.088Z,0.25
2019-04-20T12:59:11.628Z,0.53
2019-04-20T13:01:43.919Z,0.03
2019-04-20T13:04:16.506Z,0.10
2019-04-20T13:06:49.014Z,0.28
2019-04-20T13:09:22.951Z,0.28
2019-04-20T13:12:00.011Z,0.47
2019-04-20T13:14:52.702Z,0.60
2019-04-20T13:17:26.184Z,0.40
2019-04-20T13:19:59.499Z,0.20
2019-04-20T13:22:32.810Z,0.15
2019-04-20T13:25:07.225Z,0.50
2019-04-20T13:27:40.827Z,0.40
2019-04-20T13:30:14.268Z,0.45
2019-04-20T13:32:47.806Z,0.20
2019-04-20T13:35:20.546Z,0.10
2019-04-20T13:37:54.028Z,0.37
2019-04-20T13:40:27.682Z,0.50
2019-04-20T13:43:01.701Z,0.00
2019-04-20T13:45:34.995Z,0.00
2019-04-20T13:48:08.797Z,0.03
2019-04-20T13:50:42.291Z,0.00
2019-04-20T13:53:14.961Z,0.20
2019-04-20T13:55:47.759Z,0.30
2019-04-20T13:58:38.171Z,0.47
2019-04-20T14:01:18.852Z,0.10
2019-04-20T14:03:58.843Z,0.37
2019-04-20T14:06:31.239Z,0.25
2019-04-20T14:09:05.999Z,0.10
2019-04-20T14:11:39.431Z,0.13
2019-04-20T14:14:12.963Z,0.30
2019-04-20T14:16:45.506Z,0.10
2019-04-20T14:19:18.964Z,0.17
2019-04-20T14:21:52.267Z,0.40
2019-04-20T14:24:24.839Z,0.30
2019-04-20T14:26:57.201Z,0.17
2019-04-20T14:29:30.559Z,0.20
2019-04-20T14:32:05.092Z,0.10
2019-04-20T14:34:36.913Z,0.10
2019-04-20T14:37:09.145Z,0.00
2019-04-20T14:39:42.541Z,0.20
2019-04-20T14:42:27.851Z,0.37
2019-04-20T14:44:49.984Z,0.03
2019-04-20T14:47:23.526Z,0.20
2019-04-20T14:49:59.872Z,0.03
2019-04-20T14:52:31.398Z,0.08
2019-04-20T14:55:05.842Z,0.10
2019-04-20T14:57:39.364Z,0.45
2019-04-20T15:00:19.933Z,0.45
2019-04-20T15:02:52.205Z,0.98
2019-04-20T15:05:25.252Z,0.30
2019-04-20T15:07:59.043Z,0.03
2019-04-20T15:10:31.357Z,0.05
2019-04-20T15:13:06.201Z,0.60
2019-04-20T15:15:38.684Z,0.13
2019-04-20T15:18:15.609Z,0.10
2019-04-20T15:20:49.520Z,0.17
2019-04-20T15:23:23.669Z,0.17
2019-04-20T15:25:55.957Z,0.55
2019-04-20T15:28:28.469Z,0.30
2019-04-20T15:31:00.830Z,0.30
2019-04-20T15:33:33.045Z,0.57
2019-04-20T15:36:06.265Z,0.17
2019-04-20T15:38:38.807Z,0.30
2019-04-20T15:41:13.212Z,0.30
2019-04-20T15:43:45.691Z,0.10
2019-04-20T15:46:19.338Z,0.08
2019-04-20T15:48:52.386Z,0.00
2019-04-20T15:51:25.830Z,0.15
2019-04-20T15:53:58.148Z,0.60
2019-04-20T15:56:30.455Z,0.35
2019-04-20T15:59:04.266Z,0.23
2019-04-20T16:01:38.574Z,0.40
2019-04-20T16:04:21.608Z,0.42
2019-04-20T16:06:47.461Z,0.03
2019-04-20T16:09:19.989Z,0.00
2019-04-20T16:11:53.027Z,0.35
2019-04-20T16:14:25.788Z,0.37
2019-04-20T16:16:58.316Z,0.10
2019-04-20T16:19:40.829Z,0.00
2019-04-20T16:22:05.953Z,0.33
2019-04-20T16:24:46.873Z,0.30
2019-04-20T16:27:27.675Z,0.10
2019-04-20T16:30:00.032Z,0.23
2019-04-20T16:32:32.426Z,0.53
2019-04-20T16:35:06.658Z,0.20
2019-04-20T16:37:40.050Z,0.53
2019-04-20T16:40:13.857Z,0.47
2019-04-20T16:42:46.252Z,0.37
2019-04-20T16:45:19.134Z,0.10
2019-04-20T16:47:52.443Z,0.10
2019-04-20T16:50:24.820Z,0.23
2019-04-20T16:52:57.100Z,0.13
2019-04-20T16:55:30.498Z,0.20
2019-04-20T16:58:03.845Z,0.13
2019-04-20T17:00:36.191Z,0.25
2019-04-20T17:03:09.099Z,0.53
2019-04-20T17:05:41.521Z,0.45
2019-04-20T17:08:15.175Z,0.20
2019-04-20T17:10:48.812Z,0.85
2019-04-20T17:13:31.881Z,1.30
2019-04-20T17:15:55.437Z,1.05
2019-04-20T17:18:27.771Z,0.80
2019-04-20T17:21:05.858Z,0.33
2019-04-20T17:23:35.311Z,0.80
2019-04-20T17:26:10.431Z,0.50
2019-04-20T17:29:03.845Z,0.50
2019-04-20T17:31:55.773Z,0.10
2019-04-20T17:34:44.080Z,0.28
2019-04-20T17:37:02.297Z,0.53
2019-04-20T17:39:45.312Z,0.17
2019-04-20T17:42:26.442Z,0.15
2019-04-20T17:44:55.572Z,0.20
2019-04-20T17:47:39.325Z,0.10
2019-04-20T17:50:13.158Z,0.28
2019-04-20T17:52:46.861Z,0.50
2019-04-20T17:55:01.291Z,0.43
2019-04-20T17:57:33.650Z,0.20
2019-04-20T18:00:13.446Z,0.50
2019-04-20T18:03:06.047Z,0.25
2019-04-20T18:06:04.684Z,0.30
2019-04-20T18:08:35.620Z,0.28
2019-04-20T18:10:59.822Z,0.10
2019-04-20T18:13:27.619Z,0.15
2019-04-20T18:16:22.298Z,0.05
2019-04-20T18:19:01.483Z,0.70
2019-04-20T18:21:41.116Z,0.35
2019-04-20T18:24:16.548Z,0.10
2019-04-20T18:27:02.908Z,0.30
2019-04-20T18:29:37.033Z,0.20
2019-04-20T18:31:55.569Z,0.57
2019-04-20T18:34:47.261Z,0.13
2019-04-20T18:37:19.938Z,0.28
2019-04-20T18:39:57.383Z,0.62
2019-04-20T18:42:30.702Z,0.33
2019-04-20T18:45:17.399Z,0.20
2019-04-20T18:47:50.972Z,0.40
2019-04-20T18:50:15.029Z,0.00
2019-04-20T18:52:42.076Z,0.62
2019-04-20T18:55:21.260Z,0.17
2019-04-20T18:57:49.041Z,0.00
2019-04-20T19:00:26.971Z,0.57
2019-04-20T19:03:01.330Z,0.73
2019-04-20T19:05:31.665Z,0.30
2019-04-20T19:08:11.512Z,0.62
2019-04-20T19:10:43.514Z,0.90
2019-04-20T19:13:28.632Z,0.60
2019-04-20T19:16:25.203Z,0.28
2019-04-20T19:19:04.098Z,0.20
2019-04-20T19:21:27.062Z,0.20
2019-04-20T19:24:06.617Z,0.20
2019-04-20T19:26:34.304Z,0.72
2019-04-20T19:29:14.036Z,0.40
2019-04-20T19:31:56.911Z,0.20
2019-04-20T19:34:29.557Z,0.28
2019-04-20T19:37:01.154Z,0.30
2019-04-20T19:39:39.932Z,0.65
2019-04-20T19:42:13.080Z,0.30
2019-04-20T19:44:46.294Z,0.30
2019-04-20T19:47:28.531Z,0.70
2019-04-20T19:49:47.913Z,0.45
2019-04-20T19:52:41.461Z,0.23
2019-04-20T19:55:08.275Z,0.57
2019-04-20T19:57:39.809Z,0.90
2019-04-20T19:59:57.680Z,0.85
2019-04-20T20:02:29.861Z,0.30
2019-04-20T20:05:08.258Z,0.00
2019-04-20T20:07:41.313Z,0.40
2019-04-20T20:10:10.958Z,1.10
2019-04-20T20:12:48.387Z,0.40
2019-04-20T20:15:24.282Z,1.02
2019-04-20T20:18:11.023Z,0.23
2019-04-20T20:20:47.313Z,0.35
2019-04-20T20:23:01.599Z,0.78
2019-04-20T20:25:38.541Z,0.20
2019-04-20T20:28:18.794Z,0.85
2019-04-20T20:30:55.195Z,0.50
2019-04-20T20:33:34.877Z,0.65
2019-04-20T20:35:58.323Z,0.05
2019-04-20T20:38:31.505Z,0.65
2019-04-20T20:41:10.076Z,0.25
2019-04-20T20:43:46.485Z,0.60
2019-04-20T20:46:16.289Z,0.70
2019-04-20T20:49:04.849Z,0.28
2019-04-20T20:51:39.427Z,1.15
2019-04-20T20:53:59.236Z,0.20
2019-04-20T20:56:28.957Z,0.20
2019-04-20T20:59:04.358Z,0.27
2019-04-20T21:01:41.420Z,0.72
2019-04-20T21:04:05.084Z,0.42
2019-04-20T21:06:37.336Z,0.25
2019-04-20T21:09:10.490Z,0.42
2019-04-20T21:11:44.204Z,1.10
2019-04-20T21:14:22.197Z,1.07
2019-04-20T21:17:01.213Z,4.47
2019-04-20T21:19:45.281Z,1.40
2019-04-20T21:22:06.943Z,0.75
2019-04-20T21:24:38.024Z,0.40
2019-04-20T21:27:14.675Z,0.80
2019-04-20T21:29:50.536Z,1.00
2019-04-20T21:32:21.202Z,0.80
2019-04-20T21:34:58.459Z,0.20
2019-04-20T21:37:27.181Z,0.40
2019-04-20T21:40:07.922Z,0.40
2019-04-20T21:42:43.380Z,0.60
2019-04-20T21:45:16.697Z,0.88
2019-04-20T21:47:45.266Z,0.50
2019-04-20T21:50:34.837Z,0.90
2019-04-20T21:52:55.160Z,0.80
2019-04-20T21:55:25.966Z,0.25
2019-04-20T21:58:01.808Z,0.63
2019-04-20T22:00:42.451Z,0.70
2019-04-20T22:03:13.706Z,1.22
2019-04-20T22:05:46.500Z,0.88
2019-04-20T22:08:19.738Z,0.57
2019-04-20T22:10:53.361Z,0.95
2019-04-20T22:13:32.587Z,0.72
2019-04-20T22:16:05.213Z,0.17
2019-04-20T22:18:46.426Z,0.17
2019-04-20T22:21:18.718Z,0.60
2019-04-20T22:23:54.805Z,0.35
2019-04-20T22:26:25.254Z,0.75
2019-04-20T22:28:50.148Z,0.40
2019-04-20T22:31:22.553Z,0.62
2019-04-20T22:34:02.289Z,0.57
2019-04-20T22:36:38.616Z,0.53
2019-04-20T22:39:09.586Z,0.28
2019-04-20T22:41:53.526Z,0.88
2019-04-20T22:44:24.964Z,0.47
2019-04-20T22:46:56.356Z,0.20
2019-04-20T22:49:44.291Z,0.47
2019-04-20T22:52:14.276Z,0.00
2019-04-20T22:54:49.405Z,0.25
2019-04-20T22:57:29.524Z,0.37
2019-04-20T22:59:54.339Z,0.42
2019-04-20T23:02:21.685Z,1.30
2019-04-20T23:04:53.140Z,0.25
2019-04-20T23:07:26.422Z,0.37
2019-04-20T23:10:01.576Z,0.95
2019-04-20T23:12:33.911Z,0.53
2019-04-20T23:15:08.214Z,1.30
2019-04-20T23:17:44.170Z,0.40
2019-04-20T23:20:22.969Z,0.20
2019-04-20T23:22:51.140Z,0.20
2019-04-20T23:25:22.994Z,0.47
2019-04-20T23:27:58.983Z,0.20
2019-04-20T23:30:33.971Z,0.90
2019-04-20T23:33:04.251Z,0.40
2019-04-20T23:35:37.542Z,1.25
2019-04-20T23:38:15.843Z,0.30
2019-04-20T23:40:45.839Z,0.60
2019-04-20T23:43:25.469Z,0.47
2019-04-20T23:46:01.346Z,0.28
2019-04-20T23:48:38.962Z,0.47
2019-04-20T23:51:35.186Z,0.47
2019-04-20T23:53:53.948Z,0.42
2019-04-20T23:56:19.264Z,0.33
2019-04-20T23:58:53.475Z,0.47
